createdAt,value
2022-09-30T00:00:23.461Z,81.21
2022-09-30T00:05:25.054Z,80.59
2022-09-30T00:10:26.722Z,80.10
2022-09-30T00:15:28.228Z,80.97
2022-09-30T00:20:29.749Z,80.65
2022-09-30T00:25:31.230Z,80.28
2022-09-30T00:30:32.918Z,79.89
2022-09-30T00:35:34.462Z,78.89
2022-09-30T00:40:38.849Z,78.36
2022-09-30T00:45:48.675Z,78.71
2022-09-30T00:50:51.751Z,78.86
2022-09-30T00:56:16.474Z,80.20
2022-09-30T01:01:19.257Z,79.01
2022-09-30T01:06:23.602Z,78.18
2022-09-30T01:11:27.417Z,78.69
2022-09-30T01:16:45.784Z,78.14
2022-09-30T01:21:53.131Z,78.54
2022-09-30T01:27:05.027Z,78.36
2022-09-30T01:32:40.860Z,78.57
2022-09-30T01:37:51.323Z,79.15
2022-09-30T01:43:10.615Z,78.34
2022-09-30T01:48:39.159Z,79.26
2022-09-30T01:53:46.791Z,79.02
2022-09-30T01:58:57.700Z,79.88
2022-09-30T02:04:05.397Z,79.88
2022-09-30T02:09:13.812Z,82.06
2022-09-30T02:14:23.563Z,81.00
2022-09-30T02:19:29.218Z,80.77
2022-09-30T02:24:35.518Z,80.89
2022-09-30T02:29:42.107Z,82.33
2022-09-30T02:34:50.609Z,82.62
2022-09-30T02:40:02.004Z,87.78
2022-09-30T02:45:08.204Z,84.19
2022-09-30T02:50:35.114Z,84.18
2022-09-30T02:55:51.149Z,82.00
2022-09-30T03:00:54.341Z,83.27
2022-09-30T03:05:56.120Z,81.73
2022-09-30T03:10:57.653Z,82.05
2022-09-30T03:16:20.887Z,83.30
2022-09-30T03:21:29.792Z,82.61
2022-09-30T03:26:42.198Z,84.00
2022-09-30T03:32:03.486Z,83.96
2022-09-30T03:37:30.781Z,82.22
2022-09-30T03:42:39.441Z,85.03
2022-09-30T03:47:46.829Z,82.79
2022-09-30T03:52:49.921Z,85.31
2022-09-30T03:57:51.629Z,82.29
2022-09-30T04:02:57.666Z,81.00
2022-09-30T04:07:59.442Z,81.86
2022-09-30T04:13:00.957Z,80.91
2022-09-30T04:18:04.081Z,79.81
2022-09-30T04:23:05.570Z,83.12
2022-09-30T04:28:07.857Z,80.50
2022-09-30T04:33:09.435Z,82.75
2022-09-30T04:38:11.022Z,81.55
2022-09-30T04:43:12.596Z,82.53
2022-09-30T04:48:14.839Z,82.55
2022-09-30T04:53:17.894Z,81.05
2022-09-30T04:58:19.365Z,80.98
2022-09-30T05:03:20.874Z,80.25
2022-09-30T05:08:22.361Z,81.94
2022-09-30T05:13:31.702Z,79.70
2022-09-30T05:18:33.643Z,78.90
2022-09-30T05:23:35.109Z,79.08
2022-09-30T05:28:36.596Z,78.17
2022-09-30T05:33:38.063Z,77.21
2022-09-30T05:38:39.456Z,80.08
2022-09-30T05:43:42.473Z,78.76
2022-09-30T05:48:44.119Z,77.73
2022-09-30T05:53:45.683Z,79.66
2022-09-30T05:58:47.184Z,78.13
2022-09-30T06:03:48.739Z,78.23
2022-09-30T06:08:50.365Z,79.37
2022-09-30T06:13:52.047Z,78.91
2022-09-30T06:18:53.443Z,82.42
2022-09-30T06:23:54.903Z,80.47
2022-09-30T06:28:56.309Z,81.87
2022-09-30T06:33:57.799Z,85.06
2022-09-30T06:39:04.253Z,83.58
2022-09-30T06:44:05.819Z,82.69
2022-09-30T06:49:13.450Z,84.90
2022-09-30T06:54:15.385Z,83.85
2022-09-30T06:59:16.761Z,83.80
2022-09-30T07:04:18.439Z,84.67
2022-09-30T07:09:20.233Z,86.31
2022-09-30T07:14:21.819Z,86.17
2022-09-30T07:19:23.379Z,86.27
2022-09-30T07:24:24.882Z,86.09
2022-09-30T07:29:26.408Z,87.03
2022-09-30T07:34:27.862Z,86.65
2022-09-30T07:39:29.579Z,87.35
2022-09-30T07:44:31.363Z,87.26
2022-09-30T07:49:32.918Z,88.26
2022-09-30T07:54:38.774Z,91.17
2022-09-30T07:59:42.881Z,92.20
2022-09-30T08:04:45.210Z,89.90
2022-09-30T08:09:46.862Z,89.23
2022-09-30T08:14:48.357Z,91.41
2022-09-30T08:19:49.926Z,93.34
2022-09-30T08:24:51.378Z,94.20
2022-09-30T08:29:55.851Z,92.64
2022-09-30T08:34:58.160Z,92.92
2022-09-30T08:39:59.657Z,92.39
2022-09-30T08:45:18.762Z,90.61
2022-09-30T08:51:03.345Z,90.18
2022-09-30T08:56:06.976Z,91.43
2022-09-30T09:01:46.630Z,93.54
2022-09-30T09:06:57.881Z,91.27
2022-09-30T09:12:25.722Z,93.41
2022-09-30T09:18:04.589Z,93.32
2022-09-30T09:23:13.916Z,94.17
2022-09-30T09:28:35.571Z,91.47
2022-09-30T09:33:39.212Z,92.66
2022-09-30T09:38:54.177Z,92.14
2022-09-30T09:44:14.075Z,91.63
2022-09-30T09:49:15.475Z,93.22
2022-09-30T09:54:20.910Z,91.82
2022-09-30T09:59:22.786Z,91.33
2022-09-30T10:04:26.799Z,91.00
2022-09-30T10:09:35.585Z,89.16
2022-09-30T10:14:53.886Z,88.48
2022-09-30T10:20:01.079Z,87.48
2022-09-30T10:25:14.477Z,89.37
2022-09-30T10:30:44.829Z,87.59
2022-09-30T10:35:59.924Z,87.94
2022-09-30T10:41:02.883Z,89.31
2022-09-30T10:51:34.785Z,90.31
2022-09-30T10:56:45.587Z,90.18
2022-09-30T11:01:53.743Z,88.65
2022-09-30T11:07:10.446Z,90.64
2022-09-30T11:12:21.834Z,89.57
2022-09-30T11:17:27.116Z,88.85
2022-09-30T11:22:37.222Z,88.76
2022-09-30T11:28:11.345Z,88.50
2022-09-30T11:33:19.266Z,82.64
2022-09-30T11:38:20.637Z,82.60
2022-09-30T11:43:32.908Z,79.02
2022-09-30T11:48:53.026Z,82.82
2022-09-30T11:53:57.503Z,79.49
2022-09-30T11:59:02.912Z,80.29
2022-09-30T12:04:17.139Z,78.08
2022-09-30T12:09:25.314Z,78.51
2022-09-30T12:14:34.596Z,77.96
2022-09-30T12:19:48.109Z,76.67
2022-09-30T12:24:49.733Z,73.79
2022-09-30T12:29:59.798Z,81.33
2022-09-30T12:35:26.245Z,73.71
2022-09-30T12:40:52.961Z,75.42
2022-09-30T12:46:05.072Z,75.97
2022-09-30T12:51:07.041Z,72.94
2022-09-30T12:56:10.298Z,74.80
2022-09-30T13:01:27.817Z,74.83
2022-09-30T13:06:47.628Z,74.35
2022-09-30T13:11:55.315Z,71.97
2022-09-30T13:17:09.093Z,74.88
2022-09-30T13:22:19.789Z,74.42
2022-09-30T13:27:32.678Z,69.05
2022-09-30T13:32:36.509Z,68.88
2022-09-30T13:37:40.002Z,71.27
2022-09-30T13:42:49.968Z,73.15
2022-09-30T13:48:10.847Z,73.38
2022-09-30T13:53:19.527Z,72.83
2022-09-30T13:58:45.809Z,75.65
2022-09-30T14:04:22.967Z,73.45
2022-09-30T14:10:09.078Z,74.99
2022-09-30T14:15:32.701Z,80.68
2022-09-30T14:21:01.427Z,85.77
2022-09-30T14:26:15.357Z,86.98
2022-09-30T14:31:17.076Z,91.57
2022-09-30T14:36:22.211Z,83.26
2022-09-30T14:41:26.185Z,79.70
2022-09-30T14:46:38.736Z,83.11
2022-09-30T14:51:46.385Z,75.07
2022-09-30T14:56:49.527Z,74.79
2022-09-30T15:01:52.935Z,80.86
2022-09-30T15:06:55.168Z,84.46
2022-09-30T15:11:56.921Z,84.61
2022-09-30T15:17:05.145Z,80.75
2022-09-30T15:22:11.379Z,81.81
2022-09-30T15:27:23.479Z,77.93
2022-09-30T15:32:27.588Z,85.14
2022-09-30T15:37:29.270Z,85.33
2022-09-30T15:42:50.972Z,80.72
2022-09-30T15:47:58.258Z,80.24
2022-09-30T15:53:04.559Z,80.53
2022-09-30T15:58:26.099Z,78.28
2022-09-30T16:03:30.393Z,78.54
2022-09-30T16:08:38.477Z,78.81
2022-09-30T16:13:43.785Z,79.54
2022-09-30T16:18:45.494Z,80.31
2022-09-30T16:23:48.169Z,79.56
2022-09-30T16:28:50.654Z,82.94
2022-09-30T16:33:52.223Z,85.41
2022-09-30T16:38:53.681Z,89.90
2022-09-30T16:43:55.148Z,88.84
2022-09-30T16:48:56.679Z,87.85
2022-09-30T16:53:58.067Z,88.11
2022-09-30T16:58:59.644Z,87.11
2022-09-30T17:04:01.599Z,87.26
2022-09-30T17:09:04.555Z,86.23
2022-09-30T17:14:06.145Z,86.27
2022-09-30T17:19:07.655Z,84.87
2022-09-30T17:24:09.349Z,86.06
2022-09-30T17:29:30.847Z,86.30
2022-09-30T17:34:32.453Z,86.74
2022-09-30T17:39:34.079Z,87.68
2022-09-30T17:44:35.497Z,87.34
2022-09-30T17:49:37.116Z,86.44
2022-09-30T17:54:38.537Z,86.02
2022-09-30T17:59:40.065Z,86.57
2022-09-30T18:04:41.566Z,87.35
2022-09-30T18:09:43.042Z,87.11
2022-09-30T18:14:44.819Z,87.02
2022-09-30T18:19:46.320Z,85.35
2022-09-30T18:24:47.800Z,84.85
2022-09-30T18:29:49.454Z,84.53
2022-09-30T18:34:50.902Z,84.56
2022-09-30T18:39:52.538Z,85.25
2022-09-30T18:44:54.102Z,84.90
2022-09-30T18:49:55.575Z,84.04
2022-09-30T18:54:57.097Z,84.91
2022-09-30T18:59:58.992Z,85.36
2022-09-30T19:05:00.527Z,85.40
2022-09-30T19:10:02.531Z,84.48
2022-09-30T19:15:05.736Z,84.83
2022-09-30T19:20:07.642Z,84.52
2022-09-30T19:25:11.274Z,83.85
2022-09-30T19:30:14.454Z,85.18
2022-09-30T19:35:16.069Z,84.23
2022-09-30T19:40:21.911Z,84.22
2022-09-30T19:45:25.802Z,83.42
2022-09-30T19:50:27.654Z,84.73
2022-09-30T19:55:29.805Z,83.35
2022-09-30T20:00:32.097Z,84.59
2022-09-30T20:05:33.543Z,83.23
2022-09-30T20:10:34.994Z,83.74
2022-09-30T20:15:40.436Z,83.37
2022-09-30T20:20:44.334Z,82.73
2022-09-30T20:25:48.906Z,83.97
2022-09-30T20:30:50.427Z,82.97
2022-09-30T20:35:51.856Z,84.43
2022-09-30T20:40:57.959Z,83.06
2022-09-30T20:46:01.982Z,83.37
2022-09-30T20:51:08.634Z,82.73
2022-09-30T20:56:13.110Z,83.41
2022-09-30T21:01:17.493Z,82.48
2022-09-30T21:06:23.936Z,82.83
2022-09-30T21:11:25.431Z,82.22
2022-09-30T21:16:27.009Z,82.57
2022-09-30T21:21:28.516Z,83.00
2022-09-30T21:26:29.930Z,82.14
2022-09-30T21:31:31.752Z,82.47
2022-09-30T21:36:33.673Z,82.65
2022-09-30T21:41:35.585Z,82.36
2022-09-30T21:46:37.334Z,81.73
2022-09-30T21:51:38.786Z,81.43
2022-09-30T21:56:41.616Z,81.67
2022-09-30T22:01:43.296Z,82.70
2022-09-30T22:06:44.998Z,81.16
2022-09-30T22:11:46.892Z,80.85
2022-09-30T22:16:48.385Z,81.81
2022-09-30T22:21:49.845Z,81.16
2022-09-30T22:26:51.278Z,81.65
2022-09-30T22:31:52.819Z,83.82
2022-09-30T22:36:54.320Z,81.86
2022-09-30T22:41:57.439Z,82.43
2022-09-30T22:46:59.088Z,82.00
2022-09-30T22:52:01.211Z,83.65
2022-09-30T22:57:03.815Z,82.80
2022-09-30T23:02:05.330Z,83.90
2022-09-30T23:07:06.838Z,84.98
2022-09-30T23:12:08.527Z,88.23
2022-09-30T23:17:09.967Z,88.83
2022-09-30T23:22:11.470Z,85.53
2022-09-30T23:27:12.952Z,83.61
2022-09-30T23:32:14.414Z,87.49
2022-09-30T23:37:16.114Z,88.95
2022-09-30T23:42:17.668Z,88.46
2022-09-30T23:47:19.168Z,88.29
2022-09-30T23:52:20.695Z,86.66
2022-09-30T23:57:22.163Z,86.35
